sensor_id;sensor_type;location;lat;lon;timestamp;P1;durP1;ratioP1;P2;durP2;ratioP2
75450;SDS011;64029;48.244;9.188;2024-01-30T00:01:08;9.90;;;6.30;;
75450;SDS011;64029;48.244;9.188;2024-01-30T00:03:35;11.17;;;7.40;;
75450;SDS011;64029;48.244;9.188;2024-01-30T00:06:02;15.23;;;7.87;;
75450;SDS011;64029;48.244;9.188;2024-01-30T00:08:31;11.63;;;7.20;;
75450;SDS011;64029;48.244;9.188;2024-01-30T00:10:58;10.43;;;7.33;;
75450;SDS011;64029;48.244;9.188;2024-01-30T00:13:25;10.83;;;7.10;;
75450;SDS011;64029;48.244;9.188;2024-01-30T00:15:52;11.43;;;7.10;;
75450;SDS011;64029;48.244;9.188;2024-01-30T00:18:19;15.47;;;8.43;;
75450;SDS011;64029;48.244;9.188;2024-01-30T00:20:46;14.70;;;8.33;;
75450;SDS011;64029;48.244;9.188;2024-01-30T00:23:13;17.23;;;9.80;;
75450;SDS011;64029;48.244;9.188;2024-01-30T00:25:41;14.23;;;8.63;;
75450;SDS011;64029;48.244;9.188;2024-01-30T00:28:08;14.23;;;9.03;;
75450;SDS011;64029;48.244;9.188;2024-01-30T00:30:35;14.53;;;8.60;;
75450;SDS011;64029;48.244;9.188;2024-01-30T00:33:02;12.83;;;8.47;;
75450;SDS011;64029;48.244;9.188;2024-01-30T00:35:29;13.63;;;8.30;;
75450;SDS011;64029;48.244;9.188;2024-01-30T00:37:55;16.97;;;9.20;;
75450;SDS011;64029;48.244;9.188;2024-01-30T00:40:22;15.67;;;8.83;;
75450;SDS011;64029;48.244;9.188;2024-01-30T00:42:50;17.27;;;9.20;;
75450;SDS011;64029;48.244;9.188;2024-01-30T00:45:17;14.27;;;8.67;;
75450;SDS011;64029;48.244;9.188;2024-01-30T00:47:44;16.50;;;9.27;;
75450;SDS011;64029;48.244;9.188;2024-01-30T00:50:11;19.60;;;10.00;;
75450;SDS011;64029;48.244;9.188;2024-01-30T00:52:38;15.03;;;9.90;;
75450;SDS011;64029;48.244;9.188;2024-01-30T00:55:06;19.70;;;10.33;;
75450;SDS011;64029;48.244;9.188;2024-01-30T00:57:33;20.17;;;9.00;;
75450;SDS011;64029;48.244;9.188;2024-01-30T01:00:01;12.77;;;7.60;;
75450;SDS011;64029;48.244;9.188;2024-01-30T01:02:30;16.20;;;9.10;;
75450;SDS011;64029;48.244;9.188;2024-01-30T01:04:57;13.10;;;8.40;;
75450;SDS011;64029;48.244;9.188;2024-01-30T01:07:24;18.57;;;9.30;;
75450;SDS011;64029;48.244;9.188;2024-01-30T01:09:50;15.17;;;8.97;;
75450;SDS011;64029;48.244;9.188;2024-01-30T01:12:17;17.33;;;7.80;;
75450;SDS011;64029;48.244;9.188;2024-01-30T01:14:44;14.40;;;8.60;;
75450;SDS011;64029;48.244;9.188;2024-01-30T01:17:12;16.87;;;8.17;;
75450;SDS011;64029;48.244;9.188;2024-01-30T01:19:39;14.97;;;8.77;;
75450;SDS011;64029;48.244;9.188;2024-01-30T01:22:06;12.20;;;7.97;;
75450;SDS011;64029;48.244;9.188;2024-01-30T01:24:33;12.00;;;7.27;;
75450;SDS011;64029;48.244;9.188;2024-01-30T01:27:00;11.90;;;8.00;;
75450;SDS011;64029;48.244;9.188;2024-01-30T01:29:27;13.13;;;7.37;;
75450;SDS011;64029;48.244;9.188;2024-01-30T01:31:54;12.03;;;7.77;;
75450;SDS011;64029;48.244;9.188;2024-01-30T01:34:22;13.37;;;7.77;;
75450;SDS011;64029;48.244;9.188;2024-01-30T01:36:49;13.50;;;8.03;;
75450;SDS011;64029;48.244;9.188;2024-01-30T01:39:17;14.40;;;8.30;;
75450;SDS011;64029;48.244;9.188;2024-01-30T01:41:43;13.30;;;6.47;;
75450;SDS011;64029;48.244;9.188;2024-01-30T01:44:10;11.20;;;6.97;;
75450;SDS011;64029;48.244;9.188;2024-01-30T01:46:37;10.60;;;7.43;;
75450;SDS011;64029;48.244;9.188;2024-01-30T01:49:04;10.60;;;6.93;;
75450;SDS011;64029;48.244;9.188;2024-01-30T01:51:34;12.53;;;7.93;;
75450;SDS011;64029;48.244;9.188;2024-01-30T01:54:03;11.80;;;6.73;;
75450;SDS011;64029;48.244;9.188;2024-01-30T01:56:31;12.53;;;7.53;;
75450;SDS011;64029;48.244;9.188;2024-01-30T01:58:59;12.50;;;7.60;;
75450;SDS011;64029;48.244;9.188;2024-01-30T02:01:25;13.73;;;7.93;;
75450;SDS011;64029;48.244;9.188;2024-01-30T02:03:55;13.77;;;7.60;;
75450;SDS011;64029;48.244;9.188;2024-01-30T02:06:22;13.87;;;8.10;;
75450;SDS011;64029;48.244;9.188;2024-01-30T02:08:50;12.20;;;7.97;;
75450;SDS011;64029;48.244;9.188;2024-01-30T02:11:17;12.90;;;8.57;;
75450;SDS011;64029;48.244;9.188;2024-01-30T02:13:45;14.30;;;7.40;;
75450;SDS011;64029;48.244;9.188;2024-01-30T02:16:12;14.40;;;8.13;;
75450;SDS011;64029;48.244;9.188;2024-01-30T02:18:39;12.23;;;8.00;;
75450;SDS011;64029;48.244;9.188;2024-01-30T02:21:09;13.13;;;7.70;;
75450;SDS011;64029;48.244;9.188;2024-01-30T02:23:36;11.83;;;7.27;;
75450;SDS011;64029;48.244;9.188;2024-01-30T02:26:05;12.40;;;7.33;;
75450;SDS011;64029;48.244;9.188;2024-01-30T02:28:32;9.40;;;6.90;;
75450;SDS011;64029;48.244;9.188;2024-01-30T02:30:59;10.10;;;6.20;;
75450;SDS011;64029;48.244;9.188;2024-01-30T02:33:26;9.57;;;6.57;;
75450;SDS011;64029;48.244;9.188;2024-01-30T02:35:52;10.67;;;6.60;;
75450;SDS011;64029;48.244;9.188;2024-01-30T02:38:21;6.87;;;4.37;;
75450;SDS011;64029;48.244;9.188;2024-01-30T02:40:48;4.70;;;3.70;;
75450;SDS011;64029;48.244;9.188;2024-01-30T02:43:15;5.23;;;3.53;;
75450;SDS011;64029;48.244;9.188;2024-01-30T02:45:42;5.63;;;4.00;;
75450;SDS011;64029;48.244;9.188;2024-01-30T02:48:12;7.97;;;3.97;;
75450;SDS011;64029;48.244;9.188;2024-01-30T02:50:38;6.33;;;4.33;;
75450;SDS011;64029;48.244;9.188;2024-01-30T02:53:05;7.17;;;4.47;;
75450;SDS011;64029;48.244;9.188;2024-01-30T02:55:33;6.80;;;5.00;;
75450;SDS011;64029;48.244;9.188;2024-01-30T02:58:00;9.83;;;5.90;;
75450;SDS011;64029;48.244;9.188;2024-01-30T03:00:27;7.67;;;4.47;;
75450;SDS011;64029;48.244;9.188;2024-01-30T03:02:54;6.97;;;4.47;;
75450;SDS011;64029;48.244;9.188;2024-01-30T03:05:21;7.60;;;5.20;;
75450;SDS011;64029;48.244;9.188;2024-01-30T03:07:47;9.77;;;5.70;;
75450;SDS011;64029;48.244;9.188;2024-01-30T03:10:14;6.93;;;4.50;;
75450;SDS011;64029;48.244;9.188;2024-01-30T03:12:42;6.50;;;4.10;;
75450;SDS011;64029;48.244;9.188;2024-01-30T03:15:09;6.43;;;4.10;;
75450;SDS011;64029;48.244;9.188;2024-01-30T03:17:36;7.00;;;4.23;;
75450;SDS011;64029;48.244;9.188;2024-01-30T03:20:03;6.63;;;4.70;;
75450;SDS011;64029;48.244;9.188;2024-01-30T03:22:31;5.60;;;3.83;;
75450;SDS011;64029;48.244;9.188;2024-01-30T03:24:58;9.57;;;4.80;;
75450;SDS011;64029;48.244;9.188;2024-01-30T03:27:25;10.40;;;5.60;;
75450;SDS011;64029;48.244;9.188;2024-01-30T03:29:53;10.60;;;6.30;;
75450;SDS011;64029;48.244;9.188;2024-01-30T03:32:20;7.67;;;5.97;;
75450;SDS011;64029;48.244;9.188;2024-01-30T03:34:46;7.10;;;5.33;;
75450;SDS011;64029;48.244;9.188;2024-01-30T03:37:13;9.90;;;5.63;;
75450;SDS011;64029;48.244;9.188;2024-01-30T03:39:40;7.23;;;4.93;;
75450;SDS011;64029;48.244;9.188;2024-01-30T03:42:07;6.73;;;5.70;;
75450;SDS011;64029;48.244;9.188;2024-01-30T03:44:34;7.67;;;5.70;;
75450;SDS011;64029;48.244;9.188;2024-01-30T03:47:02;6.03;;;4.80;;
75450;SDS011;64029;48.244;9.188;2024-01-30T03:49:29;5.40;;;4.50;;
75450;SDS011;64029;48.244;9.188;2024-01-30T03:51:56;5.93;;;4.43;;
75450;SDS011;64029;48.244;9.188;2024-01-30T03:54:23;5.27;;;4.27;;
75450;SDS011;64029;48.244;9.188;2024-01-30T03:56:49;7.33;;;5.17;;
75450;SDS011;64029;48.244;9.188;2024-01-30T03:59:16;5.50;;;4.30;;
75450;SDS011;64029;48.244;9.188;2024-01-30T04:01:47;3.13;;;2.77;;
75450;SDS011;64029;48.244;9.188;2024-01-30T04:04:15;5.10;;;3.43;;
75450;SDS011;64029;48.244;9.188;2024-01-30T04:06:42;3.97;;;3.57;;
75450;SDS011;64029;48.244;9.188;2024-01-30T04:09:09;5.17;;;3.33;;
75450;SDS011;64029;48.244;9.188;2024-01-30T04:11:36;4.70;;;3.20;;
75450;SDS011;64029;48.244;9.188;2024-01-30T04:14:03;7.20;;;3.53;;
75450;SDS011;64029;48.244;9.188;2024-01-30T04:16:30;6.10;;;3.30;;
75450;SDS011;64029;48.244;9.188;2024-01-30T04:18:57;6.07;;;3.10;;
75450;SDS011;64029;48.244;9.188;2024-01-30T04:21:25;6.07;;;3.90;;
75450;SDS011;64029;48.244;9.188;2024-01-30T04:23:52;8.40;;;4.40;;
75450;SDS011;64029;48.244;9.188;2024-01-30T04:26:19;3.47;;;2.93;;
75450;SDS011;64029;48.244;9.188;2024-01-30T04:28:46;4.77;;;3.07;;
75450;SDS011;64029;48.244;9.188;2024-01-30T04:31:13;4.33;;;2.73;;
75450;SDS011;64029;48.244;9.188;2024-01-30T04:33:40;4.70;;;3.23;;
75450;SDS011;64029;48.244;9.188;2024-01-30T04:36:08;3.00;;;2.37;;
75450;SDS011;64029;48.244;9.188;2024-01-30T04:38:37;5.50;;;3.10;;
75450;SDS011;64029;48.244;9.188;2024-01-30T04:41:04;6.90;;;3.17;;
75450;SDS011;64029;48.244;9.188;2024-01-30T04:43:31;4.57;;;3.37;;
75450;SDS011;64029;48.244;9.188;2024-01-30T04:45:58;8.80;;;4.27;;
75450;SDS011;64029;48.244;9.188;2024-01-30T04:48:24;5.80;;;3.97;;
75450;SDS011;64029;48.244;9.188;2024-01-30T04:50:51;11.80;;;6.10;;
75450;SDS011;64029;48.244;9.188;2024-01-30T04:53:18;16.63;;;7.13;;
75450;SDS011;64029;48.244;9.188;2024-01-30T04:55:46;13.00;;;6.67;;
75450;SDS011;64029;48.244;9.188;2024-01-30T04:58:13;8.13;;;4.77;;
75450;SDS011;64029;48.244;9.188;2024-01-30T05:00:40;12.37;;;5.20;;
75450;SDS011;64029;48.244;9.188;2024-01-30T05:03:07;9.47;;;5.43;;
75450;SDS011;64029;48.244;9.188;2024-01-30T05:05:34;6.10;;;4.50;;
75450;SDS011;64029;48.244;9.188;2024-01-30T05:08:00;5.30;;;4.10;;
75450;SDS011;64029;48.244;9.188;2024-01-30T05:10:27;5.57;;;4.00;;
75450;SDS011;64029;48.244;9.188;2024-01-30T05:12:56;6.20;;;4.00;;
75450;SDS011;64029;48.244;9.188;2024-01-30T05:15:22;6.73;;;4.50;;
75450;SDS011;64029;48.244;9.188;2024-01-30T05:17:49;10.83;;;9.00;;
75450;SDS011;64029;48.244;9.188;2024-01-30T05:20:16;13.43;;;9.70;;
75450;SDS011;64029;48.244;9.188;2024-01-30T05:22:43;9.03;;;7.20;;
75450;SDS011;64029;48.244;9.188;2024-01-30T05:25:11;9.00;;;6.63;;
75450;SDS011;64029;48.244;9.188;2024-01-30T05:27:38;7.27;;;5.47;;
75450;SDS011;64029;48.244;9.188;2024-01-30T05:30:07;7.27;;;6.23;;
75450;SDS011;64029;48.244;9.188;2024-01-30T05:32:34;8.17;;;6.80;;
75450;SDS011;64029;48.244;9.188;2024-01-30T05:35:01;7.47;;;6.30;;
75450;SDS011;64029;48.244;9.188;2024-01-30T05:37:29;7.97;;;6.67;;
75450;SDS011;64029;48.244;9.188;2024-01-30T05:39:55;10.83;;;6.20;;
75450;SDS011;64029;48.244;9.188;2024-01-30T05:42:22;8.13;;;5.00;;
75450;SDS011;64029;48.244;9.188;2024-01-30T05:44:49;7.87;;;6.00;;
75450;SDS011;64029;48.244;9.188;2024-01-30T05:47:17;9.07;;;5.27;;
75450;SDS011;64029;48.244;9.188;2024-01-30T05:49:44;7.17;;;5.37;;
75450;SDS011;64029;48.244;9.188;2024-01-30T05:52:11;8.00;;;5.63;;
75450;SDS011;64029;48.244;9.188;2024-01-30T05:54:38;8.77;;;5.70;;
75450;SDS011;64029;48.244;9.188;2024-01-30T05:57:05;10.10;;;6.23;;
75450;SDS011;64029;48.244;9.188;2024-01-30T05:59:32;6.67;;;5.23;;
75450;SDS011;64029;48.244;9.188;2024-01-30T06:01:58;8.90;;;6.60;;
75450;SDS011;64029;48.244;9.188;2024-01-30T06:04:26;9.33;;;6.17;;
75450;SDS011;64029;48.244;9.188;2024-01-30T06:06:53;9.93;;;6.67;;
75450;SDS011;64029;48.244;9.188;2024-01-30T06:09:20;10.07;;;7.10;;
75450;SDS011;64029;48.244;9.188;2024-01-30T06:11:47;15.17;;;8.27;;
75450;SDS011;64029;48.244;9.188;2024-01-30T06:14:14;12.27;;;8.00;;
75450;SDS011;64029;48.244;9.188;2024-01-30T06:16:43;10.87;;;8.00;;
75450;SDS011;64029;48.244;9.188;2024-01-30T06:19:09;13.13;;;8.23;;
75450;SDS011;64029;48.244;9.188;2024-01-30T06:21:38;15.37;;;9.10;;
75450;SDS011;64029;48.244;9.188;2024-01-30T06:24:05;15.80;;;9.30;;
75450;SDS011;64029;48.244;9.188;2024-01-30T06:26:32;20.57;;;11.70;;
75450;SDS011;64029;48.244;9.188;2024-01-30T06:28:58;19.30;;;10.83;;
75450;SDS011;64029;48.244;9.188;2024-01-30T06:31:25;22.50;;;12.27;;
75450;SDS011;64029;48.244;9.188;2024-01-30T06:33:52;21.97;;;12.60;;
75450;SDS011;64029;48.244;9.188;2024-01-30T06:36:19;28.63;;;13.90;;
75450;SDS011;64029;48.244;9.188;2024-01-30T06:38:47;18.50;;;11.43;;
75450;SDS011;64029;48.244;9.188;2024-01-30T06:41:14;15.33;;;9.77;;
75450;SDS011;64029;48.244;9.188;2024-01-30T06:43:40;20.70;;;10.83;;
75450;SDS011;64029;48.244;9.188;2024-01-30T06:46:10;15.30;;;9.43;;
75450;SDS011;64029;48.244;9.188;2024-01-30T06:48:36;15.67;;;8.80;;
75450;SDS011;64029;48.244;9.188;2024-01-30T06:51:05;15.33;;;8.80;;
75450;SDS011;64029;48.244;9.188;2024-01-30T06:53:32;21.17;;;12.30;;
75450;SDS011;64029;48.244;9.188;2024-01-30T06:56:00;13.90;;;9.13;;
75450;SDS011;64029;48.244;9.188;2024-01-30T06:58:27;17.77;;;9.80;;
75450;SDS011;64029;48.244;9.188;2024-01-30T07:00:54;13.53;;;9.27;;
75450;SDS011;64029;48.244;9.188;2024-01-30T07:03:21;13.43;;;9.03;;
75450;SDS011;64029;48.244;9.188;2024-01-30T07:05:48;13.00;;;8.93;;
75450;SDS011;64029;48.244;9.188;2024-01-30T07:08:15;11.87;;;7.83;;
75450;SDS011;64029;48.244;9.188;2024-01-30T07:10:42;15.63;;;7.80;;
75450;SDS011;64029;48.244;9.188;2024-01-30T07:13:10;13.67;;;8.33;;
75450;SDS011;64029;48.244;9.188;2024-01-30T07:15:38;13.97;;;9.63;;
75450;SDS011;64029;48.244;9.188;2024-01-30T07:18:05;12.83;;;9.77;;
75450;SDS011;64029;48.244;9.188;2024-01-30T07:20:32;18.53;;;9.67;;
75450;SDS011;64029;48.244;9.188;2024-01-30T07:23:00;13.87;;;9.00;;
75450;SDS011;64029;48.244;9.188;2024-01-30T07:25:27;15.43;;;8.80;;
75450;SDS011;64029;48.244;9.188;2024-01-30T07:27:54;14.40;;;9.80;;
75450;SDS011;64029;48.244;9.188;2024-01-30T07:30:22;16.50;;;11.43;;
75450;SDS011;64029;48.244;9.188;2024-01-30T07:32:49;18.60;;;10.70;;
75450;SDS011;64029;48.244;9.188;2024-01-30T07:35:16;16.30;;;10.77;;
75450;SDS011;64029;48.244;9.188;2024-01-30T07:37:43;14.03;;;10.10;;
75450;SDS011;64029;48.244;9.188;2024-01-30T07:40:10;15.77;;;10.00;;
75450;SDS011;64029;48.244;9.188;2024-01-30T07:42:37;18.00;;;12.20;;
75450;SDS011;64029;48.244;9.188;2024-01-30T07:45:04;15.60;;;10.50;;
75450;SDS011;64029;48.244;9.188;2024-01-30T07:47:33;19.43;;;11.63;;
75450;SDS011;64029;48.244;9.188;2024-01-30T07:49:59;21.20;;;12.20;;
75450;SDS011;64029;48.244;9.188;2024-01-30T07:52:26;23.63;;;11.27;;
75450;SDS011;64029;48.244;9.188;2024-01-30T07:54:53;22.27;;;11.77;;
75450;SDS011;64029;48.244;9.188;2024-01-30T07:57:20;28.87;;;13.10;;
75450;SDS011;64029;48.244;9.188;2024-01-30T07:59:47;26.83;;;14.70;;
75450;SDS011;64029;48.244;9.188;2024-01-30T08:02:14;26.33;;;15.50;;
75450;SDS011;64029;48.244;9.188;2024-01-30T08:04:42;28.67;;;16.77;;
75450;SDS011;64029;48.244;9.188;2024-01-30T08:07:13;27.57;;;16.47;;
75450;SDS011;64029;48.244;9.188;2024-01-30T08:09:40;26.63;;;16.77;;
75450;SDS011;64029;48.244;9.188;2024-01-30T08:12:07;28.23;;;16.60;;
75450;SDS011;64029;48.244;9.188;2024-01-30T08:14:34;25.63;;;15.60;;
75450;SDS011;64029;48.244;9.188;2024-01-30T08:17:00;28.40;;;18.17;;
75450;SDS011;64029;48.244;9.188;2024-01-30T08:19:27;26.90;;;16.93;;
75450;SDS011;64029;48.244;9.188;2024-01-30T08:21:55;24.57;;;15.77;;
75450;SDS011;64029;48.244;9.188;2024-01-30T08:24:22;22.93;;;14.27;;
75450;SDS011;64029;48.244;9.188;2024-01-30T08:26:49;19.43;;;13.23;;
75450;SDS011;64029;48.244;9.188;2024-01-30T08:29:16;16.20;;;11.30;;
75450;SDS011;64029;48.244;9.188;2024-01-30T08:31:43;15.10;;;10.93;;
75450;SDS011;64029;48.244;9.188;2024-01-30T08:34:11;14.87;;;10.90;;
75450;SDS011;64029;48.244;9.188;2024-01-30T08:36:38;14.00;;;9.63;;
75450;SDS011;64029;48.244;9.188;2024-01-30T08:39:06;11.50;;;8.97;;
75450;SDS011;64029;48.244;9.188;2024-01-30T08:41:33;14.40;;;11.10;;
75450;SDS011;64029;48.244;9.188;2024-01-30T08:43:59;16.13;;;11.70;;
75450;SDS011;64029;48.244;9.188;2024-01-30T08:46:26;15.70;;;10.63;;
75450;SDS011;64029;48.244;9.188;2024-01-30T08:48:53;19.53;;;13.93;;
75450;SDS011;64029;48.244;9.188;2024-01-30T08:51:20;22.33;;;14.30;;
75450;SDS011;64029;48.244;9.188;2024-01-30T08:53:47;20.90;;;14.80;;
75450;SDS011;64029;48.244;9.188;2024-01-30T08:56:15;25.23;;;16.43;;
75450;SDS011;64029;48.244;9.188;2024-01-30T08:58:42;28.73;;;16.10;;
75450;SDS011;64029;48.244;9.188;2024-01-30T09:01:09;26.97;;;16.87;;
75450;SDS011;64029;48.244;9.188;2024-01-30T09:03:36;23.50;;;16.40;;
75450;SDS011;64029;48.244;9.188;2024-01-30T09:06:07;25.70;;;18.10;;
75450;SDS011;64029;48.244;9.188;2024-01-30T09:08:34;26.13;;;16.27;;
75450;SDS011;64029;48.244;9.188;2024-01-30T09:11:02;25.60;;;16.80;;
75450;SDS011;64029;48.244;9.188;2024-01-30T09:13:35;22.20;;;15.00;;
75450;SDS011;64029;48.244;9.188;2024-01-30T09:16:02;22.70;;;15.47;;
75450;SDS011;64029;48.244;9.188;2024-01-30T09:18:30;21.50;;;14.57;;
75450;SDS011;64029;48.244;9.188;2024-01-30T09:20:57;23.50;;;15.23;;
75450;SDS011;64029;48.244;9.188;2024-01-30T09:23:24;24.10;;;16.53;;
75450;SDS011;64029;48.244;9.188;2024-01-30T09:25:51;24.90;;;16.87;;
75450;SDS011;64029;48.244;9.188;2024-01-30T09:28:18;26.63;;;17.70;;
75450;SDS011;64029;48.244;9.188;2024-01-30T09:30:46;35.73;;;22.77;;
75450;SDS011;64029;48.244;9.188;2024-01-30T09:33:13;29.70;;;18.63;;
75450;SDS011;64029;48.244;9.188;2024-01-30T09:35:40;28.10;;;17.77;;
75450;SDS011;64029;48.244;9.188;2024-01-30T09:38:07;25.10;;;15.40;;
75450;SDS011;64029;48.244;9.188;2024-01-30T09:40:33;22.63;;;14.70;;
75450;SDS011;64029;48.244;9.188;2024-01-30T09:43:01;20.50;;;13.23;;
75450;SDS011;64029;48.244;9.188;2024-01-30T09:45:28;20.83;;;13.83;;
75450;SDS011;64029;48.244;9.188;2024-01-30T09:47:58;19.57;;;13.30;;
75450;SDS011;64029;48.244;9.188;2024-01-30T09:50:25;19.20;;;13.87;;
75450;SDS011;64029;48.244;9.188;2024-01-30T09:52:53;21.07;;;14.30;;
75450;SDS011;64029;48.244;9.188;2024-01-30T09:55:23;17.77;;;11.87;;
75450;SDS011;64029;48.244;9.188;2024-01-30T09:57:50;18.47;;;12.13;;
75450;SDS011;64029;48.244;9.188;2024-01-30T10:00:17;20.90;;;11.90;;
75450;SDS011;64029;48.244;9.188;2024-01-30T10:02:44;17.63;;;11.67;;
75450;SDS011;64029;48.244;9.188;2024-01-30T10:05:13;25.07;;;11.97;;
75450;SDS011;64029;48.244;9.188;2024-01-30T10:07:49;17.27;;;11.53;;
75450;SDS011;64029;48.244;9.188;2024-01-30T10:10:19;15.27;;;9.73;;
75450;SDS011;64029;48.244;9.188;2024-01-30T10:12:47;15.10;;;10.80;;
75450;SDS011;64029;48.244;9.188;2024-01-30T10:15:15;14.60;;;10.13;;
75450;SDS011;64029;48.244;9.188;2024-01-30T10:17:44;14.67;;;10.20;;
75450;SDS011;64029;48.244;9.188;2024-01-30T10:20:12;14.53;;;10.00;;
75450;SDS011;64029;48.244;9.188;2024-01-30T10:22:39;22.23;;;11.37;;
75450;SDS011;64029;48.244;9.188;2024-01-30T10:25:07;13.33;;;10.00;;
75450;SDS011;64029;48.244;9.188;2024-01-30T10:27:35;14.20;;;9.57;;
75450;SDS011;64029;48.244;9.188;2024-01-30T10:30:02;11.70;;;7.77;;
75450;SDS011;64029;48.244;9.188;2024-01-30T10:32:30;13.80;;;8.90;;
75450;SDS011;64029;48.244;9.188;2024-01-30T10:34:57;10.60;;;8.17;;
75450;SDS011;64029;48.244;9.188;2024-01-30T10:37:26;11.60;;;8.23;;
75450;SDS011;64029;48.244;9.188;2024-01-30T10:39:56;11.03;;;7.57;;
75450;SDS011;64029;48.244;9.188;2024-01-30T10:42:28;8.60;;;5.90;;
75450;SDS011;64029;48.244;9.188;2024-01-30T10:44:59;9.30;;;5.63;;
75450;SDS011;64029;48.244;9.188;2024-01-30T10:47:32;10.73;;;6.90;;
75450;SDS011;64029;48.244;9.188;2024-01-30T10:50:01;8.03;;;6.43;;
75450;SDS011;64029;48.244;9.188;2024-01-30T10:52:30;8.73;;;6.27;;
75450;SDS011;64029;48.244;9.188;2024-01-30T10:54:58;6.90;;;4.93;;
75450;SDS011;64029;48.244;9.188;2024-01-30T10:57:26;7.13;;;5.80;;
75450;SDS011;64029;48.244;9.188;2024-01-30T10:59:54;9.23;;;5.80;;
75450;SDS011;64029;48.244;9.188;2024-01-30T11:02:23;9.83;;;5.77;;
75450;SDS011;64029;48.244;9.188;2024-01-30T11:04:54;8.07;;;5.80;;
75450;SDS011;64029;48.244;9.188;2024-01-30T11:07:24;11.53;;;5.90;;
75450;SDS011;64029;48.244;9.188;2024-01-30T11:09:53;9.53;;;5.60;;
75450;SDS011;64029;48.244;9.188;2024-01-30T11:12:27;7.70;;;5.37;;
75450;SDS011;64029;48.244;9.188;2024-01-30T11:15:04;9.27;;;4.70;;
75450;SDS011;64029;48.244;9.188;2024-01-30T11:17:42;6.87;;;5.40;;
75450;SDS011;64029;48.244;9.188;2024-01-30T11:20:10;11.03;;;5.90;;
75450;SDS011;64029;48.244;9.188;2024-01-30T11:22:40;7.60;;;6.20;;
75450;SDS011;64029;48.244;9.188;2024-01-30T11:25:12;6.93;;;5.33;;
75450;SDS011;64029;48.244;9.188;2024-01-30T11:27:41;6.83;;;5.30;;
75450;SDS011;64029;48.244;9.188;2024-01-30T11:30:08;6.97;;;5.37;;
75450;SDS011;64029;48.244;9.188;2024-01-30T11:32:35;5.50;;;4.90;;
75450;SDS011;64029;48.244;9.188;2024-01-30T11:35:03;6.53;;;5.00;;
75450;SDS011;64029;48.244;9.188;2024-01-30T11:37:31;5.53;;;4.80;;
75450;SDS011;64029;48.244;9.188;2024-01-30T11:40:03;8.80;;;5.37;;
75450;SDS011;64029;48.244;9.188;2024-01-30T11:42:32;7.20;;;5.00;;
75450;SDS011;64029;48.244;9.188;2024-01-30T11:45:00;9.67;;;5.87;;
75450;SDS011;64029;48.244;9.188;2024-01-30T11:47:28;9.33;;;6.10;;
75450;SDS011;64029;48.244;9.188;2024-01-30T11:49:55;10.70;;;6.50;;
75450;SDS011;64029;48.244;9.188;2024-01-30T11:52:22;9.13;;;6.20;;
75450;SDS011;64029;48.244;9.188;2024-01-30T11:54:49;7.17;;;5.20;;
75450;SDS011;64029;48.244;9.188;2024-01-30T11:57:16;7.07;;;4.83;;
75450;SDS011;64029;48.244;9.188;2024-01-30T11:59:45;12.30;;;5.17;;
75450;SDS011;64029;48.244;9.188;2024-01-30T12:02:15;8.20;;;5.13;;
75450;SDS011;64029;48.244;9.188;2024-01-30T12:04:43;9.00;;;5.60;;
75450;SDS011;64029;48.244;9.188;2024-01-30T12:07:10;6.83;;;4.90;;
75450;SDS011;64029;48.244;9.188;2024-01-30T12:09:37;6.43;;;5.13;;
75450;SDS011;64029;48.244;9.188;2024-01-30T12:12:04;8.53;;;6.00;;
75450;SDS011;64029;48.244;9.188;2024-01-30T12:14:36;8.03;;;5.70;;
75450;SDS011;64029;48.244;9.188;2024-01-30T12:17:05;11.13;;;7.23;;
75450;SDS011;64029;48.244;9.188;2024-01-30T12:19:34;11.90;;;8.20;;
75450;SDS011;64029;48.244;9.188;2024-01-30T12:22:01;13.23;;;8.93;;
75450;SDS011;64029;48.244;9.188;2024-01-30T12:24:29;15.60;;;10.63;;
75450;SDS011;64029;48.244;9.188;2024-01-30T12:26:56;21.77;;;11.40;;
75450;SDS011;64029;48.244;9.188;2024-01-30T12:29:23;21.10;;;10.73;;
75450;SDS011;64029;48.244;9.188;2024-01-30T12:31:52;21.20;;;12.73;;
75450;SDS011;64029;48.244;9.188;2024-01-30T12:34:20;24.40;;;13.13;;
75450;SDS011;64029;48.244;9.188;2024-01-30T12:36:47;21.57;;;12.83;;
75450;SDS011;64029;48.244;9.188;2024-01-30T12:39:15;20.90;;;11.60;;
75450;SDS011;64029;48.244;9.188;2024-01-30T12:41:42;21.47;;;11.17;;
75450;SDS011;64029;48.244;9.188;2024-01-30T12:44:09;18.27;;;11.10;;
75450;SDS011;64029;48.244;9.188;2024-01-30T12:46:36;17.50;;;10.80;;
75450;SDS011;64029;48.244;9.188;2024-01-30T12:49:03;15.93;;;11.13;;
75450;SDS011;64029;48.244;9.188;2024-01-30T12:51:31;18.40;;;10.70;;
75450;SDS011;64029;48.244;9.188;2024-01-30T12:54:03;21.77;;;10.70;;
75450;SDS011;64029;48.244;9.188;2024-01-30T12:56:31;18.17;;;10.97;;
75450;SDS011;64029;48.244;9.188;2024-01-30T12:58:58;14.40;;;10.07;;
75450;SDS011;64029;48.244;9.188;2024-01-30T13:01:25;17.67;;;11.90;;
75450;SDS011;64029;48.244;9.188;2024-01-30T13:03:52;25.60;;;12.60;;
75450;SDS011;64029;48.244;9.188;2024-01-30T13:06:19;19.10;;;12.47;;
75450;SDS011;64029;48.244;9.188;2024-01-30T13:08:47;20.70;;;11.70;;
75450;SDS011;64029;48.244;9.188;2024-01-30T13:11:14;18.73;;;12.73;;
75450;SDS011;64029;48.244;9.188;2024-01-30T13:13:41;24.60;;;13.90;;
75450;SDS011;64029;48.244;9.188;2024-01-30T13:16:08;19.73;;;13.50;;
75450;SDS011;64029;48.244;9.188;2024-01-30T13:18:35;20.17;;;14.60;;
75450;SDS011;64029;48.244;9.188;2024-01-30T13:21:01;24.30;;;14.20;;
75450;SDS011;64029;48.244;9.188;2024-01-30T13:23:28;22.37;;;14.37;;
75450;SDS011;64029;48.244;9.188;2024-01-30T13:25:57;27.80;;;15.20;;
75450;SDS011;64029;48.244;9.188;2024-01-30T13:28:23;24.57;;;15.47;;
75450;SDS011;64029;48.244;9.188;2024-01-30T13:30:51;21.83;;;14.47;;
75450;SDS011;64029;48.244;9.188;2024-01-30T13:33:18;17.90;;;12.27;;
75450;SDS011;64029;48.244;9.188;2024-01-30T13:35:44;19.10;;;13.63;;
75450;SDS011;64029;48.244;9.188;2024-01-30T13:38:11;17.97;;;11.37;;
75450;SDS011;64029;48.244;9.188;2024-01-30T13:40:39;19.80;;;13.60;;
75450;SDS011;64029;48.244;9.188;2024-01-30T13:43:07;21.03;;;12.80;;
75450;SDS011;64029;48.244;9.188;2024-01-30T13:45:34;19.33;;;11.97;;
75450;SDS011;64029;48.244;9.188;2024-01-30T13:48:01;19.10;;;13.43;;
75450;SDS011;64029;48.244;9.188;2024-01-30T13:50:28;23.10;;;14.00;;
75450;SDS011;64029;48.244;9.188;2024-01-30T13:52:55;20.97;;;12.37;;
75450;SDS011;64029;48.244;9.188;2024-01-30T13:55:22;26.90;;;14.03;;
75450;SDS011;64029;48.244;9.188;2024-01-30T13:57:50;23.30;;;13.27;;
75450;SDS011;64029;48.244;9.188;2024-01-30T14:00:18;28.03;;;13.97;;
75450;SDS011;64029;48.244;9.188;2024-01-30T14:02:47;21.20;;;11.50;;
75450;SDS011;64029;48.244;9.188;2024-01-30T14:05:14;22.93;;;12.77;;
75450;SDS011;64029;48.244;9.188;2024-01-30T14:07:41;17.40;;;10.93;;
75450;SDS011;64029;48.244;9.188;2024-01-30T14:10:10;16.70;;;9.87;;
75450;SDS011;64029;48.244;9.188;2024-01-30T14:12:37;16.37;;;10.03;;
75450;SDS011;64029;48.244;9.188;2024-01-30T14:15:04;15.47;;;10.57;;
75450;SDS011;64029;48.244;9.188;2024-01-30T14:17:32;15.93;;;10.63;;
75450;SDS011;64029;48.244;9.188;2024-01-30T14:19:59;16.07;;;11.40;;
75450;SDS011;64029;48.244;9.188;2024-01-30T14:22:28;17.33;;;10.60;;
75450;SDS011;64029;48.244;9.188;2024-01-30T14:24:54;14.97;;;10.40;;
75450;SDS011;64029;48.244;9.188;2024-01-30T14:27:22;18.10;;;10.80;;
75450;SDS011;64029;48.244;9.188;2024-01-30T14:29:49;19.53;;;10.37;;
75450;SDS011;64029;48.244;9.188;2024-01-30T14:32:15;15.50;;;11.00;;
75450;SDS011;64029;48.244;9.188;2024-01-30T14:34:43;17.70;;;11.23;;